createdAt,value
2022-11-16T00:01:41.967Z,94034.20
2022-11-16T00:04:11.999Z,94026.40
2022-11-16T00:06:39.393Z,94020.00
2022-11-16T00:09:26.944Z,94013.00
2022-11-16T00:11:59.493Z,94003.20
2022-11-16T00:14:30.979Z,93998.00
2022-11-16T00:16:59.594Z,93990.00
2022-11-16T00:19:28.665Z,93984.80
2022-11-16T00:21:55.882Z,93985.20
2022-11-16T00:24:23.789Z,93988.20
2022-11-16T00:26:56.123Z,93990.80
2022-11-16T00:29:25.651Z,93996.20
2022-11-16T00:31:53.938Z,93994.60
2022-11-16T00:34:22.581Z,93996.20
2022-11-16T00:36:49.864Z,93997.40
2022-11-16T00:39:17.931Z,93999.40
2022-11-16T00:41:47.188Z,93992.20
2022-11-16T00:44:14.288Z,93998.80
2022-11-16T00:46:41.459Z,93998.60
2022-11-16T00:49:08.482Z,94003.40
2022-11-16T00:51:37.372Z,94001.60
2022-11-16T00:54:08.559Z,94004.80
2022-11-16T00:56:37.409Z,94008.00
2022-11-16T00:59:05.261Z,94004.40
2022-11-16T01:01:32.096Z,94004.40
2022-11-16T01:03:58.802Z,94008.60
2022-11-16T01:06:25.401Z,94007.40
2022-11-16T01:08:52.756Z,94003.00
2022-11-16T01:11:38.645Z,94001.40
2022-11-16T01:14:08.222Z,93994.60
2022-11-16T01:16:35.812Z,93996.80
2022-11-16T01:19:03.751Z,93991.40
2022-11-16T01:21:30.472Z,93992.60
2022-11-16T01:23:57.276Z,93986.80
2022-11-16T01:26:24.694Z,93974.40
2022-11-16T01:28:51.926Z,93967.00
2022-11-16T01:31:18.772Z,93962.20
2022-11-16T01:33:46.883Z,93951.40
2022-11-16T01:36:19.495Z,93952.60
2022-11-16T01:38:47.432Z,93954.40
2022-11-16T01:41:21.227Z,93956.80
2022-11-16T01:44:33.516Z,93954.60
2022-11-16T01:47:14.665Z,93960.60
2022-11-16T01:49:47.906Z,93959.60
2022-11-16T01:52:25.168Z,93955.40
2022-11-16T01:54:54.025Z,93955.60
2022-11-16T01:57:28.219Z,93954.20
2022-11-16T02:00:08.376Z,93960.60
2022-11-16T02:02:43.140Z,93956.60
2022-11-16T02:05:22.731Z,93960.80
2022-11-16T02:08:46.852Z,93960.00
2022-11-16T02:11:48.190Z,93959.80
2022-11-16T02:14:39.610Z,93955.00
2022-11-16T02:17:53.639Z,93960.00
2022-11-16T02:20:39.072Z,93946.80
2022-11-16T02:23:36.621Z,93938.20
2022-11-16T02:26:20.751Z,93943.60
2022-11-16T02:29:15.379Z,93951.40
2022-11-16T02:31:53.920Z,93953.40
2022-11-16T02:34:23.708Z,93954.40
2022-11-16T02:36:54.824Z,93950.60
2022-11-16T02:39:27.353Z,93942.60
2022-11-16T02:41:55.993Z,93943.40
2022-11-16T02:44:33.812Z,93938.00
2022-11-16T02:47:07.521Z,93931.60
2022-11-16T02:49:41.192Z,93931.40
2022-11-16T02:52:09.762Z,93930.00
2022-11-16T02:54:36.449Z,93932.20
2022-11-16T02:57:03.010Z,93925.20
2022-11-16T02:59:38.195Z,93922.80
2022-11-16T03:02:26.072Z,93917.60
2022-11-16T03:05:03.331Z,93923.60
2022-11-16T03:07:40.947Z,93941.80
2022-11-16T03:10:08.116Z,93952.00
2022-11-16T03:12:36.270Z,93954.80
2022-11-16T03:15:11.515Z,93952.40
2022-11-16T03:17:44.695Z,93945.80
2022-11-16T03:20:27.805Z,93938.20
2022-11-16T03:22:59.413Z,93941.20
2022-11-16T03:25:37.069Z,93942.60
2022-11-16T03:28:29.568Z,93947.60
2022-11-16T03:31:22.799Z,93948.80
2022-11-16T03:33:58.578Z,93951.80
2022-11-16T03:36:33.944Z,93952.40
2022-11-16T03:39:11.239Z,93951.00
2022-11-16T03:41:42.168Z,93955.60
2022-11-16T03:44:12.460Z,93962.00
2022-11-16T03:46:42.479Z,93970.80
2022-11-16T03:49:10.249Z,93971.80
2022-11-16T03:51:37.805Z,93987.20
2022-11-16T03:54:05.690Z,93989.60
2022-11-16T03:56:33.069Z,93994.60
2022-11-16T03:58:59.680Z,94004.40
2022-11-16T04:01:26.472Z,94000.20
2022-11-16T04:03:53.205Z,94006.00
2022-11-16T04:06:38.960Z,94007.40
2022-11-16T04:09:23.905Z,94006.80
2022-11-16T04:12:09.709Z,94014.80
2022-11-16T04:14:55.864Z,94026.80
2022-11-16T04:17:44.118Z,94021.60
2022-11-16T04:20:32.816Z,94026.20
2022-11-16T04:23:32.173Z,94032.20
2022-11-16T04:25:59.365Z,94032.60
2022-11-16T04:28:31.429Z,94032.20
2022-11-16T04:31:21.789Z,94038.00
2022-11-16T04:34:12.384Z,94046.20
2022-11-16T04:37:01.631Z,94042.60
2022-11-16T04:39:28.643Z,94045.40
2022-11-16T04:42:14.513Z,94050.00
2022-11-16T04:45:00.955Z,94049.60
2022-11-16T04:47:32.655Z,94053.80
2022-11-16T04:49:59.272Z,94051.40
2022-11-16T04:52:26.078Z,94052.80
2022-11-16T04:54:53.584Z,94050.80
2022-11-16T04:57:20.226Z,94058.80
2022-11-16T04:59:48.126Z,94054.80
2022-11-16T05:02:15.253Z,94054.80
2022-11-16T05:04:51.824Z,94055.60
2022-11-16T05:07:19.084Z,94059.00
2022-11-16T05:09:48.259Z,94059.20
2022-11-16T05:12:26.821Z,94059.60
2022-11-16T05:14:56.210Z,94059.60
2022-11-16T05:17:26.270Z,94063.20
2022-11-16T05:20:12.321Z,94059.80
2022-11-16T05:22:45.392Z,94062.80
2022-11-16T05:25:12.023Z,94059.80
2022-11-16T05:27:38.814Z,94065.40
2022-11-16T05:30:06.567Z,94063.00
2022-11-16T05:32:33.779Z,94070.20
2022-11-16T05:35:00.621Z,94069.60
2022-11-16T05:37:27.463Z,94070.80
2022-11-16T05:39:54.880Z,94070.80
2022-11-16T05:42:23.443Z,94069.40
2022-11-16T05:44:50.150Z,94068.20
2022-11-16T05:47:17.538Z,94067.60
2022-11-16T05:49:44.704Z,94069.60
2022-11-16T05:52:12.682Z,94069.00
2022-11-16T05:54:39.759Z,94075.80
2022-11-16T05:57:06.433Z,94073.40
2022-11-16T05:59:33.993Z,94068.20
2022-11-16T06:02:01.075Z,94070.80
2022-11-16T06:04:27.855Z,94074.80
2022-11-16T06:06:54.622Z,94072.60
2022-11-16T06:09:24.948Z,94067.60
2022-11-16T06:11:54.670Z,94069.80
2022-11-16T06:14:21.406Z,94065.80
2022-11-16T06:16:48.027Z,94066.20
2022-11-16T06:19:14.675Z,94067.60
2022-11-16T06:21:41.422Z,94066.00
2022-11-16T06:24:13.450Z,94068.40
2022-11-16T06:26:41.512Z,94070.00
2022-11-16T06:29:08.201Z,94068.80
2022-11-16T06:31:35.285Z,94072.20
2022-11-16T06:34:02.514Z,94068.40
2022-11-16T06:36:29.531Z,94070.20
2022-11-16T06:39:00.885Z,94071.60
2022-11-16T06:41:28.532Z,94074.00
2022-11-16T06:43:55.820Z,94073.20
2022-11-16T06:46:25.701Z,94066.20
2022-11-16T06:48:52.835Z,94064.60
2022-11-16T06:51:19.520Z,94059.60
2022-11-16T06:53:46.531Z,94060.40
2022-11-16T06:56:15.449Z,94058.40
2022-11-16T06:58:46.102Z,94060.60
2022-11-16T07:01:13.506Z,94059.20
2022-11-16T07:03:41.394Z,94057.40
2022-11-16T07:06:11.252Z,94058.20
2022-11-16T07:08:39.335Z,94056.60
2022-11-16T07:11:08.635Z,94063.20
2022-11-16T07:13:37.874Z,94069.40
2022-11-16T07:16:10.848Z,94067.00
2022-11-16T07:18:41.837Z,94067.00
2022-11-16T07:21:14.300Z,94065.40
2022-11-16T07:23:41.178Z,94061.40
2022-11-16T07:26:10.725Z,94058.20
2022-11-16T07:28:47.753Z,94057.60
2022-11-16T07:31:16.593Z,94064.20
2022-11-16T07:33:43.526Z,94057.80
2022-11-16T07:36:38.967Z,94059.00
2022-11-16T07:39:07.018Z,94055.80
2022-11-16T07:41:33.641Z,94057.80
2022-11-16T07:44:12.100Z,94061.20
2022-11-16T07:46:48.484Z,94060.40
2022-11-16T07:49:17.935Z,94061.80
2022-11-16T07:51:52.309Z,94064.00
2022-11-16T07:54:39.184Z,94063.00
2022-11-16T07:57:05.948Z,94066.20
2022-11-16T07:59:33.031Z,94070.60
2022-11-16T08:02:00.842Z,94070.20
2022-11-16T08:04:27.498Z,94065.60
2022-11-16T08:06:54.480Z,94070.20
2022-11-16T08:09:21.139Z,94078.60
2022-11-16T08:11:48.442Z,94079.20
2022-11-16T08:14:15.729Z,94077.60
2022-11-16T08:16:42.470Z,94076.40
2022-11-16T08:19:13.270Z,94076.20
2022-11-16T08:21:39.922Z,94075.80
2022-11-16T08:24:07.608Z,94076.00
2022-11-16T08:26:36.914Z,94076.00
2022-11-16T08:29:07.500Z,94075.80
2022-11-16T08:31:35.825Z,94077.80
2022-11-16T08:34:12.480Z,94080.80
2022-11-16T08:36:41.985Z,94086.20
2022-11-16T08:39:08.799Z,94082.80
2022-11-16T08:41:37.604Z,94085.00
2022-11-16T08:44:05.527Z,94080.60
2022-11-16T08:46:33.693Z,94084.60
2022-11-16T08:49:07.745Z,94082.00
2022-11-16T08:51:34.471Z,94081.80
2022-11-16T08:54:05.167Z,94083.80
2022-11-16T08:56:32.773Z,94087.00
2022-11-16T08:58:59.746Z,94086.40
2022-11-16T09:01:29.655Z,94082.60
2022-11-16T09:03:56.905Z,94087.60
2022-11-16T09:06:26.248Z,94088.60
2022-11-16T09:08:53.030Z,94087.80
2022-11-16T09:11:22.849Z,94086.80
2022-11-16T09:13:52.907Z,94095.40
2022-11-16T09:16:21.623Z,94091.60
2022-11-16T09:18:50.730Z,94095.40
2022-11-16T09:21:23.738Z,94100.80
2022-11-16T09:24:15.342Z,94095.00
2022-11-16T09:26:42.332Z,94096.20
2022-11-16T09:29:14.859Z,94092.80
2022-11-16T09:31:41.983Z,94102.00
2022-11-16T09:34:08.923Z,94099.00
2022-11-16T09:36:35.592Z,94104.20
2022-11-16T09:39:29.476Z,94104.80
2022-11-16T09:42:00.559Z,94108.40
2022-11-16T09:44:57.458Z,94109.00
2022-11-16T09:47:41.513Z,94109.40
2022-11-16T09:50:23.244Z,94110.20
2022-11-16T09:52:52.845Z,94108.00
2022-11-16T09:55:32.743Z,94112.20
2022-11-16T09:58:04.176Z,94106.40
2022-11-16T10:00:31.587Z,94112.60
2022-11-16T10:03:11.355Z,94113.20
2022-11-16T10:06:08.653Z,94111.80
2022-11-16T10:08:47.154Z,94112.60
2022-11-16T10:12:05.399Z,94118.20
2022-11-16T10:15:15.896Z,94113.80
2022-11-16T10:18:24.650Z,94115.40
2022-11-16T10:21:09.072Z,94111.40
2022-11-16T10:24:12.815Z,94109.20
2022-11-16T10:27:16.578Z,94106.80
2022-11-16T10:30:07.548Z,94107.20
2022-11-16T10:32:49.086Z,94104.00
2022-11-16T10:35:24.326Z,94106.40
2022-11-16T10:37:52.170Z,94104.40
2022-11-16T10:40:25.757Z,94103.00
2022-11-16T10:43:16.327Z,94100.00
2022-11-16T10:45:57.986Z,94105.20
2022-11-16T10:48:42.439Z,94104.20
2022-11-16T10:51:10.760Z,94100.20
2022-11-16T10:53:41.478Z,94102.60
2022-11-16T10:56:19.786Z,94100.00
2022-11-16T10:59:01.581Z,94100.40
2022-11-16T11:01:53.292Z,94093.60
2022-11-16T11:04:24.612Z,94091.20
2022-11-16T11:07:22.576Z,94091.40
2022-11-16T11:09:54.434Z,94089.80
2022-11-16T11:12:38.325Z,94081.60
2022-11-16T11:15:11.083Z,94085.00
2022-11-16T11:17:48.091Z,94082.60
2022-11-16T11:20:17.606Z,94081.40
2022-11-16T11:23:19.307Z,94078.40
2022-11-16T11:26:00.205Z,94074.80
2022-11-16T11:28:37.075Z,94073.20
2022-11-16T11:31:11.752Z,94069.00
2022-11-16T11:33:51.181Z,94071.20
2022-11-16T11:36:29.236Z,94072.80
2022-11-16T11:39:11.322Z,94075.20
2022-11-16T11:41:47.080Z,94078.40
2022-11-16T11:44:13.593Z,94079.00
2022-11-16T11:50:19.608Z,94077.60
2022-11-16T11:53:05.548Z,94079.40
2022-11-16T11:55:32.253Z,94081.60
2022-11-16T11:58:01.805Z,94081.40
2022-11-16T12:00:50.638Z,94081.20
2022-11-16T12:03:59.621Z,94085.80
2022-11-16T12:07:17.467Z,94083.60
2022-11-16T12:10:07.349Z,94079.20
2022-11-16T12:13:24.590Z,94077.60
2022-11-16T12:15:57.888Z,94079.40
2022-11-16T12:19:02.717Z,94076.20
2022-11-16T12:21:55.856Z,94079.20
2022-11-16T12:25:01.549Z,94072.20
2022-11-16T12:27:51.417Z,94072.20
2022-11-16T12:30:21.859Z,94069.00
2022-11-16T12:33:23.314Z,94067.80
2022-11-16T12:36:08.645Z,94060.80
2022-11-16T12:38:41.041Z,94063.80
2022-11-16T12:41:10.664Z,94063.40
2022-11-16T12:43:56.476Z,94062.00
2022-11-16T12:47:01.613Z,94062.60
2022-11-16T12:49:43.362Z,94065.80
2022-11-16T12:52:57.585Z,94066.80
2022-11-16T12:55:31.339Z,94063.40
2022-11-16T12:58:25.888Z,94059.20
2022-11-16T13:01:07.804Z,94054.80
2022-11-16T13:03:53.093Z,94051.20
2022-11-16T13:06:29.373Z,94041.60
2022-11-16T13:09:16.742Z,94038.40
2022-11-16T13:11:55.897Z,94035.20
2022-11-16T13:14:30.300Z,94038.20
2022-11-16T13:17:00.849Z,94043.40
2022-11-16T13:19:28.189Z,94040.80
2022-11-16T13:22:06.890Z,94031.20
2022-11-16T13:25:00.650Z,94036.60
2022-11-16T13:27:37.421Z,94040.40
2022-11-16T13:30:22.429Z,94040.60
2022-11-16T13:33:29.799Z,94035.40
2022-11-16T13:35:56.430Z,94034.00
2022-11-16T13:38:53.356Z,94037.20
2022-11-16T13:41:43.234Z,94035.20
2022-11-16T13:44:23.903Z,94029.80
2022-11-16T13:46:59.664Z,94030.40
2022-11-16T13:49:42.451Z,94027.20
2022-11-16T13:52:35.680Z,94023.80
2022-11-16T13:55:40.231Z,94021.80
2022-11-16T13:58:11.277Z,94022.60
2022-11-16T14:00:39.945Z,94023.60
2022-11-16T14:03:15.464Z,94021.40
2022-11-16T14:05:48.265Z,94024.60
2022-11-16T14:08:24.055Z,94024.20
2022-11-16T14:10:50.601Z,94024.20
2022-11-16T14:13:55.510Z,94018.00
2022-11-16T14:16:23.216Z,94014.00
2022-11-16T14:18:56.324Z,94012.00
2022-11-16T14:21:38.423Z,94009.20
2022-11-16T14:24:29.116Z,94007.00
2022-11-16T14:27:30.582Z,94012.00
2022-11-16T14:30:23.383Z,94009.40
2022-11-16T14:32:53.997Z,94005.80
2022-11-16T14:35:38.881Z,94005.40
2022-11-16T14:38:35.913Z,94005.80
2022-11-16T14:41:06.862Z,94005.40
2022-11-16T14:43:44.058Z,94005.40
2022-11-16T14:46:35.187Z,94006.80
2022-11-16T14:49:02.961Z,94009.00
2022-11-16T14:51:34.970Z,94007.20
2022-11-16T14:54:23.671Z,94008.80
2022-11-16T14:57:06.417Z,94010.20
2022-11-16T14:59:33.889Z,94003.60
2022-11-16T15:02:22.628Z,94009.20
2022-11-16T15:04:51.830Z,94003.20
2022-11-16T15:07:22.176Z,93997.80
2022-11-16T15:09:53.009Z,93996.60
2022-11-16T15:12:41.726Z,93999.20
2022-11-16T15:15:11.146Z,93999.40
2022-11-16T15:18:02.813Z,94000.00
2022-11-16T15:20:36.625Z,94000.60
2022-11-16T15:23:06.323Z,93998.60
2022-11-16T15:25:55.277Z,94001.40
2022-11-16T15:28:27.245Z,94003.60
2022-11-16T15:31:01.374Z,94000.00
2022-11-16T15:33:36.075Z,93992.80
2022-11-16T15:36:33.473Z,93983.60
2022-11-16T15:39:02.374Z,93975.60
2022-11-16T15:41:29.388Z,93981.00
2022-11-16T15:44:13.892Z,93984.40
2022-11-16T15:46:45.661Z,93985.80
2022-11-16T15:49:30.261Z,93992.00
2022-11-16T15:52:01.050Z,93993.20
2022-11-16T15:54:55.266Z,93996.40
2022-11-16T15:57:24.087Z,93997.60
2022-11-16T15:59:57.535Z,93995.20
2022-11-16T16:02:28.740Z,93995.60
2022-11-16T16:04:55.501Z,93987.20
2022-11-16T16:07:42.509Z,93986.60
2022-11-16T16:10:18.381Z,93987.80
2022-11-16T16:12:53.636Z,93985.80
2022-11-16T16:15:36.622Z,93988.60
2022-11-16T16:18:14.128Z,93985.80
2022-11-16T16:20:47.735Z,93987.20
2022-11-16T16:23:20.601Z,93986.60
2022-11-16T16:25:50.604Z,93985.20
2022-11-16T16:28:17.631Z,93984.60
2022-11-16T16:30:44.337Z,93985.00
2022-11-16T16:33:19.474Z,93985.40
2022-11-16T16:35:49.696Z,93984.80
2022-11-16T16:38:16.462Z,93982.60
2022-11-16T16:40:43.106Z,93990.20
2022-11-16T16:43:09.668Z,93987.60
2022-11-16T16:45:41.477Z,93985.20
2022-11-16T16:48:14.107Z,93985.20
2022-11-16T16:50:40.712Z,93985.60
2022-11-16T16:53:11.497Z,93987.80
2022-11-16T16:55:38.265Z,93988.80
2022-11-16T16:58:05.871Z,93986.00
2022-11-16T17:00:32.596Z,93987.80
2022-11-16T17:02:59.169Z,93985.60
2022-11-16T17:05:26.593Z,93981.20
2022-11-16T17:07:56.314Z,93983.20
2022-11-16T17:10:23.118Z,93979.20
2022-11-16T17:12:53.596Z,93976.80
2022-11-16T17:15:20.265Z,93978.40
2022-11-16T17:17:47.384Z,93974.00
2022-11-16T17:20:14.787Z,93975.60
2022-11-16T17:22:41.882Z,93980.60
2022-11-16T17:25:10.748Z,93979.20
2022-11-16T17:27:37.332Z,93980.00
2022-11-16T17:30:04.747Z,93981.60
2022-11-16T17:32:31.431Z,93978.20
2022-11-16T17:34:58.029Z,93976.20
2022-11-16T17:37:24.622Z,93972.00
2022-11-16T17:39:51.199Z,93968.80
2022-11-16T17:42:17.795Z,93967.80
2022-11-16T17:44:44.458Z,93970.20
2022-11-16T17:47:11.114Z,93963.40
2022-11-16T17:49:37.773Z,93964.20
2022-11-16T17:52:04.892Z,93960.20
2022-11-16T17:54:31.919Z,93956.40
2022-11-16T17:56:58.495Z,93959.20
2022-11-16T17:59:29.418Z,93953.60
2022-11-16T18:01:58.013Z,93963.60
2022-11-16T18:04:25.547Z,93963.20
2022-11-16T18:06:52.198Z,93965.00
2022-11-16T18:09:18.982Z,93964.80
2022-11-16T18:11:45.770Z,93957.20
2022-11-16T18:14:12.503Z,93950.40
2022-11-16T18:16:42.360Z,93948.60
2022-11-16T18:19:11.970Z,93950.60
2022-11-16T18:21:41.214Z,93948.60
2022-11-16T18:24:08.476Z,93948.80
2022-11-16T18:26:35.709Z,93952.80
2022-11-16T18:29:02.836Z,93946.60
2022-11-16T18:31:32.806Z,93942.00
2022-11-16T18:34:01.309Z,93932.60
2022-11-16T18:36:27.909Z,93928.80
2022-11-16T18:38:54.543Z,93920.40
2022-11-16T18:41:24.717Z,93916.40
2022-11-16T18:43:54.718Z,93908.40
2022-11-16T18:46:25.691Z,93907.00
2022-11-16T18:48:52.553Z,93910.40
2022-11-16T18:51:20.920Z,93906.00
2022-11-16T18:53:47.728Z,93901.80
2022-11-16T18:56:15.614Z,93898.40
2022-11-16T18:58:50.242Z,93893.20
2022-11-16T19:01:21.955Z,93891.40
2022-11-16T19:03:50.112Z,93891.20
2022-11-16T19:06:17.831Z,93893.80
2022-11-16T19:08:49.009Z,93895.80
2022-11-16T19:11:20.883Z,93889.60
2022-11-16T19:14:04.293Z,93895.60
2022-11-16T19:16:31.632Z,93893.40
2022-11-16T19:18:58.261Z,93892.00
2022-11-16T19:21:25.274Z,93886.60
2022-11-16T19:23:54.450Z,93885.80
2022-11-16T19:26:25.215Z,93881.20
2022-11-16T19:28:53.313Z,93873.40
2022-11-16T19:31:24.234Z,93874.20
2022-11-16T19:34:05.827Z,93872.60
2022-11-16T19:36:35.623Z,93869.00
2022-11-16T19:39:02.742Z,93868.80
2022-11-16T19:41:29.543Z,93863.20
2022-11-16T19:44:00.026Z,93853.00
2022-11-16T19:46:30.130Z,93853.80
2022-11-16T19:48:56.976Z,93851.40
2022-11-16T19:51:29.866Z,93849.00
2022-11-16T19:53:58.499Z,93851.20
2022-11-16T19:56:25.696Z,93849.80
2022-11-16T19:58:52.465Z,93838.80
2022-11-16T20:01:27.480Z,93839.00
2022-11-16T20:03:57.195Z,93835.40
2022-11-16T20:06:30.106Z,93835.20
2022-11-16T20:09:08.306Z,93830.20
2022-11-16T20:11:37.893Z,93832.60
2022-11-16T20:14:07.678Z,93830.80
2022-11-16T20:16:39.272Z,93833.40
2022-11-16T20:19:08.252Z,93830.40
2022-11-16T20:21:41.438Z,93827.80
2022-11-16T20:24:15.241Z,93822.80
2022-11-16T20:26:48.278Z,93828.00
2022-11-16T20:29:18.165Z,93835.60
2022-11-16T20:31:46.598Z,93839.60
2022-11-16T20:34:16.172Z,93842.80
2022-11-16T20:36:46.146Z,93841.80
2022-11-16T20:39:15.929Z,93836.40
2022-11-16T20:41:44.037Z,93829.60
2022-11-16T20:44:16.736Z,93827.80
2022-11-16T20:46:45.230Z,93829.00
2022-11-16T20:49:12.406Z,93822.40
2022-11-16T20:51:39.639Z,93824.20
2022-11-16T20:54:06.864Z,93823.20
2022-11-16T20:56:34.363Z,93825.00
2022-11-16T20:59:01.721Z,93815.20
2022-11-16T21:01:30.966Z,93812.40
2022-11-16T21:04:01.321Z,93808.00
2022-11-16T21:06:28.701Z,93815.60
2022-11-16T21:08:55.954Z,93819.40
2022-11-16T21:11:27.068Z,93821.60
2022-11-16T21:14:12.717Z,93819.40
2022-11-16T21:16:40.267Z,93821.20
2022-11-16T21:19:07.586Z,93824.20
2022-11-16T21:21:34.384Z,93824.40
2022-11-16T21:24:01.085Z,93825.20
2022-11-16T21:26:33.365Z,93834.60
2022-11-16T21:29:01.750Z,93844.60
2022-11-16T21:31:32.565Z,93844.80
2022-11-16T21:34:02.998Z,93853.80
2022-11-16T21:36:32.084Z,93851.20
2022-11-16T21:38:59.317Z,93852.60
2022-11-16T21:41:26.753Z,93845.80
2022-11-16T21:43:53.613Z,93835.00
2022-11-16T21:46:26.124Z,93827.20
2022-11-16T21:48:56.652Z,93830.60
2022-11-16T21:51:27.002Z,93825.80
2022-11-16T21:53:53.935Z,93818.20
2022-11-16T21:56:24.325Z,93807.80
2022-11-16T21:58:55.559Z,93794.40
2022-11-16T22:01:24.047Z,93793.80
2022-11-16T22:04:10.969Z,93792.20
2022-11-16T22:06:56.247Z,93794.00
2022-11-16T22:09:22.936Z,93802.20
2022-11-16T22:11:49.601Z,93801.00
2022-11-16T22:14:16.292Z,93793.80
2022-11-16T22:16:42.889Z,93798.40
2022-11-16T22:19:09.561Z,93795.20
2022-11-16T22:21:36.200Z,93794.80
2022-11-16T22:24:02.947Z,93798.80
2022-11-16T22:26:29.585Z,93801.80
2022-11-16T22:28:56.315Z,93805.80
2022-11-16T22:31:22.935Z,93800.80
2022-11-16T22:33:53.646Z,93799.20
2022-11-16T22:36:20.397Z,93802.80
2022-11-16T22:38:47.024Z,93802.20
2022-11-16T22:41:13.599Z,93790.00
2022-11-16T22:43:40.493Z,93784.20
2022-11-16T22:46:07.604Z,93781.00
2022-11-16T22:48:39.749Z,93782.20
2022-11-16T22:51:12.242Z,93781.80
2022-11-16T22:53:38.909Z,93779.60
2022-11-16T22:56:10.421Z,93777.40
2022-11-16T22:58:38.953Z,93773.80
2022-11-16T23:01:08.046Z,93768.00
2022-11-16T23:03:36.346Z,93773.00
2022-11-16T23:06:04.405Z,93770.20
2022-11-16T23:08:31.412Z,93762.20
2022-11-16T23:11:28.612Z,93758.00
2022-11-16T23:14:14.078Z,93750.00
2022-11-16T23:16:41.983Z,93744.20
2022-11-16T23:19:30.661Z,93745.80
2022-11-16T23:22:17.073Z,93742.60
2022-11-16T23:25:02.973Z,93745.60
2022-11-16T23:27:50.247Z,93744.40
2022-11-16T23:30:17.125Z,93744.40
2022-11-16T23:32:43.800Z,93743.20
2022-11-16T23:35:12.293Z,93739.80
2022-11-16T23:38:00.784Z,93733.80
2022-11-16T23:40:31.595Z,93728.40
2022-11-16T23:43:18.199Z,93719.60
2022-11-16T23:45:45.974Z,93719.00
2022-11-16T23:48:16.103Z,93709.60
2022-11-16T23:50:45.307Z,93707.40
2022-11-16T23:53:13.197Z,93699.00
2022-11-16T23:55:40.629Z,93699.40
2022-11-16T23:58:13.895Z,93694.80
